PWSweather.com
Personal Weather Stations
Station Observations
EDDERTON
Rossshire, EddertonGB IV191LA

RossshireEddertonGB IV191LA

Lat: 57.838, Lon: -4.176

Elevation: 60

Station Type: Davis Vantage PRO2 Wireless With Solar Sensor

http://www.ardmore-lodge.com

Latest ConditionsUpdated 10:30:00 AM GMT Thursday, May 26, 2016
Currently Today's Max Today's Min Today's Average
Temperature 51.0°F10.6°C 51.0°F10.6°C 45.9°F7.7°C 47.5°F8.6°C
Dew Point 44.8°F7.1°C 44.8°F7.1°C 41.9°F5.5°C 42.8°F6.0°C
Winds 2.3 mph NE3.7 kmh NE 5.8 mph NE9.3 kmh NE - 3.2 mph 5.1 kmh
Wind Gusts 3.5 mph5.6 kmh 6.9 mph11.1 kmh - -
Humidity 79% 87% 78% 84%
Pressure 30.18 in1022.0 mb 30.21 in1023.0 mb 30.18 in1022.0 mb -
Hour Temp Dew Point Humidity Winds Wind Gusts Pressure Precip Precip Rate Daily Precip Total
10:30 AM 51.0°F10.6°C 44.8°F7.1°C 79% 2.3 mph NE3.7 kmh NE 3.5 mph5.6 kmh 30.18 in1022.0 mb - 0.00 in0.0 mm 0.00 in0.0 mm
10:15 AM 50.6°F10.3°C 44.0°F6.7°C 78% 2.3 mph NE3.7 kmh NE 4.6 mph7.4 kmh 30.18 in1022.0 mb - 0.00 in0.0 mm 0.00 in0.0 mm
10:00 AM 51.0°F10.6°C 44.4°F6.9°C 78% 1.2 mph NE1.9 kmh NE 4.6 mph7.4 kmh 30.18 in1022.0 mb - 0.00 in0.0 mm 0.00 in0.0 mm
09:45 AM 50.8°F10.4°C 44.2°F6.8°C 78% 2.3 mph NNE3.7 kmh NNE 3.5 mph5.6 kmh 30.18 in1022.0 mb - 0.00 in0.0 mm 0.00 in0.0 mm
09:30 AM 50.1°F10.1°C 43.5°F6.4°C 78% Calm Calm 1.2 mph1.9 kmh 30.18 in1022.0 mb - 0.00 in0.0 mm 0.00 in0.0 mm
09:15 AM 49.7°F9.8°C 43.1°F6.2°C 78% 3.5 mph NNE5.6 kmh NNE 4.6 mph7.4 kmh 30.19 in1022.4 mb - 0.00 in0.0 mm 0.00 in0.0 mm
09:00 AM 49.2°F9.6°C 43.0°F6.1°C 79% 2.3 mph NNE3.7 kmh NNE 3.5 mph5.6 kmh 30.19 in1022.4 mb - 0.00 in0.0 mm 0.00 in0.0 mm
08:45 AM 49.0°F9.4°C 43.1°F6.2°C 80% 3.5 mph NNE5.6 kmh NNE 3.5 mph5.6 kmh 30.19 in1022.4 mb - 0.00 in0.0 mm 0.00 in0.0 mm
08:30 AM 48.6°F9.2°C 42.7°F5.9°C 80% 1.2 mph NNE1.9 kmh NNE 2.3 mph3.7 kmh 30.20 in1022.7 mb - 0.00 in0.0 mm 0.00 in0.0 mm
08:15 AM 48.6°F9.2°C 43.4°F6.3°C 82% 3.5 mph NNE5.6 kmh NNE 4.6 mph7.4 kmh 30.20 in1022.7 mb - 0.00 in0.0 mm 0.00 in0.0 mm
08:00 AM 47.8°F8.8°C 42.6°F5.9°C 82% 1.2 mph NNE1.9 kmh NNE 3.5 mph5.6 kmh 30.20 in1022.7 mb - 0.00 in0.0 mm 0.00 in0.0 mm
07:45 AM 47.6°F8.7°C 42.1°F5.6°C 81% 3.5 mph NE5.6 kmh NE 3.5 mph5.6 kmh 30.20 in1022.7 mb - 0.00 in0.0 mm 0.00 in0.0 mm
07:30 AM 47.4°F8.6°C 42.2°F5.7°C 82% 2.3 mph NE3.7 kmh NE 3.5 mph5.6 kmh 30.20 in1022.7 mb - 0.00 in0.0 mm 0.00 in0.0 mm
07:15 AM 47.2°F8.4°C 42.3°F5.7°C 83% 3.5 mph NE5.6 kmh NE 4.6 mph7.4 kmh 30.21 in1023.0 mb - 0.00 in0.0 mm 0.00 in0.0 mm
07:00 AM 47.2°F8.4°C 42.6°F5.9°C 84% 3.5 mph NNE5.6 kmh NNE 4.6 mph7.4 kmh 30.20 in1022.7 mb - 0.00 in0.0 mm 0.00 in0.0 mm
06:45 AM 47.1°F8.4°C 42.5°F5.8°C 84% 3.5 mph NNE5.6 kmh NNE 4.6 mph7.4 kmh 30.20 in1022.7 mb - 0.00 in0.0 mm 0.00 in0.0 mm
06:30 AM 46.9°F8.3°C 42.6°F5.9°C 85% 4.6 mph NNE7.4 kmh NNE 4.6 mph7.4 kmh 30.20 in1022.7 mb - 0.00 in0.0 mm 0.00 in0.0 mm
06:15 AM 46.6°F8.1°C 42.4°F5.8°C 85% 3.5 mph NNE5.6 kmh NNE 4.6 mph7.4 kmh 30.20 in1022.7 mb - 0.00 in0.0 mm 0.00 in0.0 mm
06:00 AM 46.4°F8.0°C 42.1°F5.6°C 85% 2.3 mph NNE3.7 kmh NNE 3.5 mph5.6 kmh 30.20 in1022.7 mb - 0.00 in0.0 mm 0.00 in0.0 mm
05:45 AM 46.2°F7.9°C 41.9°F5.5°C 85% 3.5 mph NNE5.6 kmh NNE 4.6 mph7.4 kmh 30.20 in1022.7 mb - 0.00 in0.0 mm 0.00 in0.0 mm
05:30 AM 46.2°F7.9°C 41.9°F5.5°C 85% 3.5 mph NNE5.6 kmh NNE 3.5 mph5.6 kmh 30.20 in1022.7 mb - 0.00 in0.0 mm 0.00 in0.0 mm
05:15 AM 46.1°F7.8°C 42.1°F5.6°C 86% 2.3 mph NNE3.7 kmh NNE 3.5 mph5.6 kmh 30.19 in1022.4 mb - 0.00 in0.0 mm 0.00 in0.0 mm
05:00 AM 46.0°F7.8°C 42.1°F5.6°C 86% 2.3 mph NNE3.7 kmh NNE 3.5 mph5.6 kmh 30.19 in1022.4 mb - 0.00 in0.0 mm 0.00 in0.0 mm
04:45 AM 46.0°F7.8°C 42.0°F5.6°C 86% 2.3 mph NNE3.7 kmh NNE 3.5 mph5.6 kmh 30.19 in1022.4 mb - 0.00 in0.0 mm 0.00 in0.0 mm
04:30 AM 45.9°F7.7°C 41.9°F5.5°C 86% 1.2 mph NNE1.9 kmh NNE 2.3 mph3.7 kmh 30.20 in1022.7 mb - 0.00 in0.0 mm 0.00 in0.0 mm
04:15 AM 45.9°F7.7°C 41.9°F5.5°C 86% 2.3 mph NNE3.7 kmh NNE 3.5 mph5.6 kmh 30.20 in1022.7 mb - 0.00 in0.0 mm 0.00 in0.0 mm
04:00 AM 45.9°F7.7°C 41.9°F5.5°C 86% 2.3 mph NNE3.7 kmh NNE 3.5 mph5.6 kmh 30.20 in1022.7 mb - 0.00 in0.0 mm 0.00 in0.0 mm
03:45 AM 46.0°F7.8°C 42.0°F5.6°C 86% 3.5 mph NNE5.6 kmh NNE 4.6 mph7.4 kmh 30.20 in1022.7 mb - 0.00 in0.0 mm 0.00 in0.0 mm
03:30 AM 46.1°F7.8°C 42.1°F5.6°C 86% 4.6 mph NNE7.4 kmh NNE 6.9 mph11.1 kmh 30.20 in1022.7 mb - 0.00 in0.0 mm 0.00 in0.0 mm
03:15 AM 46.2°F7.9°C 42.2°F5.7°C 86% 3.5 mph NNE5.6 kmh NNE 4.6 mph7.4 kmh 30.19 in1022.4 mb - 0.00 in0.0 mm 0.00 in0.0 mm
03:00 AM 46.3°F7.9°C 42.3°F5.7°C 86% 4.6 mph NNE7.4 kmh NNE 4.6 mph7.4 kmh 30.20 in1022.7 mb - 0.00 in0.0 mm 0.00 in0.0 mm
02:45 AM 46.4°F8.0°C 42.4°F5.8°C 86% 3.5 mph NNE5.6 kmh NNE 4.6 mph7.4 kmh 30.20 in1022.7 mb - 0.00 in0.0 mm 0.00 in0.0 mm
02:30 AM 46.5°F8.1°C 42.8°F6.0°C 87% 4.6 mph NE7.4 kmh NE 6.9 mph11.1 kmh 30.20 in1022.7 mb - 0.00 in0.0 mm 0.00 in0.0 mm
02:15 AM 46.5°F8.1°C 42.9°F6.1°C 87% 4.6 mph NE7.4 kmh NE 4.6 mph7.4 kmh 30.20 in1022.7 mb - 0.00 in0.0 mm 0.00 in0.0 mm
02:00 AM 46.6°F8.1°C 43.0°F6.1°C 87% 3.5 mph NE5.6 kmh NE 4.6 mph7.4 kmh 30.20 in1022.7 mb - 0.00 in0.0 mm 0.00 in0.0 mm
01:45 AM 46.9°F8.3°C 42.9°F6.1°C 86% 2.3 mph NE3.7 kmh NE 6.9 mph11.1 kmh 30.20 in1022.7 mb - 0.00 in0.0 mm 0.00 in0.0 mm
01:30 AM 47.1°F8.4°C 43.1°F6.2°C 86% 4.6 mph NE7.4 kmh NE 4.6 mph7.4 kmh 30.21 in1023.0 mb - 0.00 in0.0 mm 0.00 in0.0 mm
01:15 AM 47.3°F8.5°C 43.3°F6.3°C 86% 3.5 mph NE5.6 kmh NE 4.6 mph7.4 kmh 30.21 in1023.0 mb - 0.00 in0.0 mm 0.00 in0.0 mm
01:00 AM 47.5°F8.6°C 43.5°F6.4°C 86% 3.5 mph NE5.6 kmh NE 4.6 mph7.4 kmh 30.21 in1023.0 mb - 0.00 in0.0 mm 0.00 in0.0 mm
12:45 AM 47.6°F8.7°C 43.6°F6.4°C 86% 5.8 mph NE9.3 kmh NE 5.8 mph9.3 kmh 30.21 in1023.0 mb - 0.00 in0.0 mm 0.00 in0.0 mm
12:30 AM 47.7°F8.7°C 43.7°F6.5°C 86% 4.6 mph NE7.4 kmh NE 5.8 mph9.3 kmh 30.21 in1023.0 mb - 0.00 in0.0 mm 0.00 in0.0 mm
12:15 AM 47.9°F8.8°C 43.9°F6.6°C 86% 5.8 mph NE9.3 kmh NE 5.8 mph9.3 kmh 30.21 in1023.0 mb - 0.00 in0.0 mm 0.00 in0.0 mm
12:00 AM 48.1°F8.9°C 44.1°F6.7°C 86% 5.8 mph NE9.3 kmh NE 6.9 mph11.1 kmh 30.21 in1023.0 mb - 0.00 in0.0 mm 0.00 in0.0 mm